sensor_id;sensor_type;location;lat;lon;timestamp;P1;durP1;ratioP1;P2;durP2;ratioP2
10063;SDS011;5071;52.360;13.134;2023-07-20T00:04:09;0.30;;;0.20;;
10063;SDS011;5071;52.360;13.134;2023-07-20T00:09:13;0.30;;;0.30;;
10063;SDS011;5071;52.360;13.134;2023-07-20T00:14:15;0.30;;;0.30;;
10063;SDS011;5071;52.360;13.134;2023-07-20T00:19:17;0.43;;;0.43;;
10063;SDS011;5071;52.360;13.134;2023-07-20T00:24:20;0.40;;;0.30;;
10063;SDS011;5071;52.360;13.134;2023-07-20T00:29:22;0.40;;;0.40;;
10063;SDS011;5071;52.360;13.134;2023-07-20T00:34:24;0.30;;;0.30;;
10063;SDS011;5071;52.360;13.134;2023-07-20T00:39:28;0.43;;;0.43;;
10063;SDS011;5071;52.360;13.134;2023-07-20T00:44:30;0.53;;;0.40;;
10063;SDS011;5071;52.360;13.134;2023-07-20T00:49:32;0.40;;;0.40;;
10063;SDS011;5071;52.360;13.134;2023-07-20T00:54:36;0.40;;;0.30;;
10063;SDS011;5071;52.360;13.134;2023-07-20T00:59:39;0.40;;;0.40;;
10063;SDS011;5071;52.360;13.134;2023-07-20T01:04:41;0.40;;;0.40;;
10063;SDS011;5071;52.360;13.134;2023-07-20T01:09:47;0.77;;;0.40;;
10063;SDS011;5071;52.360;13.134;2023-07-20T01:14:54;0.23;;;0.23;;
10063;SDS011;5071;52.360;13.134;2023-07-20T01:19:56;0.30;;;0.30;;
10063;SDS011;5071;52.360;13.134;2023-07-20T01:25:07;0.30;;;0.30;;
10063;SDS011;5071;52.360;13.134;2023-07-20T01:30:33;0.40;;;0.40;;
10063;SDS011;5071;52.360;13.134;2023-07-20T01:35:55;0.37;;;0.37;;
10063;SDS011;5071;52.360;13.134;2023-07-20T01:40:59;0.63;;;0.57;;
10063;SDS011;5071;52.360;13.134;2023-07-20T01:46:02;0.30;;;0.30;;
10063;SDS011;5071;52.360;13.134;2023-07-20T01:51:05;0.33;;;0.33;;
10063;SDS011;5071;52.360;13.134;2023-07-20T01:56:07;0.97;;;0.97;;
10063;SDS011;5071;52.360;13.134;2023-07-20T02:01:09;0.23;;;0.23;;
10063;SDS011;5071;52.360;13.134;2023-07-20T02:06:13;0.70;;;0.70;;
10063;SDS011;5071;52.360;13.134;2023-07-20T02:11:16;0.37;;;0.37;;
10063;SDS011;5071;52.360;13.134;2023-07-20T02:16:18;0.50;;;0.30;;
10063;SDS011;5071;52.360;13.134;2023-07-20T02:21:22;0.40;;;0.40;;
10063;SDS011;5071;52.360;13.134;2023-07-20T02:26:24;0.30;;;0.30;;
10063;SDS011;5071;52.360;13.134;2023-07-20T02:31:26;0.50;;;0.50;;
10063;SDS011;5071;52.360;13.134;2023-07-20T02:36:30;0.20;;;0.20;;
10063;SDS011;5071;52.360;13.134;2023-07-20T02:41:32;0.33;;;0.33;;
10063;SDS011;5071;52.360;13.134;2023-07-20T02:46:35;0.40;;;0.40;;
10063;SDS011;5071;52.360;13.134;2023-07-20T02:51:39;0.30;;;0.30;;
10063;SDS011;5071;52.360;13.134;2023-07-20T02:56:41;0.57;;;0.57;;
10063;SDS011;5071;52.360;13.134;2023-07-20T03:01:43;0.63;;;0.30;;
10063;SDS011;5071;52.360;13.134;2023-07-20T03:06:47;1.00;;;0.83;;
10063;SDS011;5071;52.360;13.134;2023-07-20T03:11:49;0.47;;;0.47;;
10063;SDS011;5071;52.360;13.134;2023-07-20T03:16:52;0.63;;;0.63;;
10063;SDS011;5071;52.360;13.134;2023-07-20T03:21:55;1.17;;;1.07;;
10063;SDS011;5071;52.360;13.134;2023-07-20T03:26:58;0.43;;;0.43;;
10063;SDS011;5071;52.360;13.134;2023-07-20T03:32:00;1.20;;;0.63;;
10063;SDS011;5071;52.360;13.134;2023-07-20T03:37:04;0.23;;;0.23;;
10063;SDS011;5071;52.360;13.134;2023-07-20T03:42:07;1.33;;;0.73;;
10063;SDS011;5071;52.360;13.134;2023-07-20T03:47:09;1.70;;;0.93;;
10063;SDS011;5071;52.360;13.134;2023-07-20T03:52:13;0.90;;;0.70;;
10063;SDS011;5071;52.360;13.134;2023-07-20T03:57:15;0.37;;;0.37;;
10063;SDS011;5071;52.360;13.134;2023-07-20T04:02:17;1.07;;;0.83;;
10063;SDS011;5071;52.360;13.134;2023-07-20T04:07:21;1.37;;;1.13;;
10063;SDS011;5071;52.360;13.134;2023-07-20T04:12:23;0.60;;;0.60;;
10063;SDS011;5071;52.360;13.134;2023-07-20T04:17:25;1.13;;;1.07;;
10063;SDS011;5071;52.360;13.134;2023-07-20T04:22:29;0.80;;;0.80;;
10063;SDS011;5071;52.360;13.134;2023-07-20T04:27:31;1.97;;;1.20;;
10063;SDS011;5071;52.360;13.134;2023-07-20T04:32:33;1.20;;;0.83;;
10063;SDS011;5071;52.360;13.134;2023-07-20T04:37:38;0.90;;;0.90;;
10063;SDS011;5071;52.360;13.134;2023-07-20T04:42:40;0.53;;;0.53;;
10063;SDS011;5071;52.360;13.134;2023-07-20T04:47:42;1.27;;;0.80;;
10063;SDS011;5071;52.360;13.134;2023-07-20T04:52:45;1.63;;;0.80;;
10063;SDS011;5071;52.360;13.134;2023-07-20T04:57:47;1.27;;;1.00;;
10063;SDS011;5071;52.360;13.134;2023-07-20T05:02:49;0.63;;;0.63;;
10063;SDS011;5071;52.360;13.134;2023-07-20T05:07:53;0.60;;;0.60;;
10063;SDS011;5071;52.360;13.134;2023-07-20T05:12:55;1.33;;;0.83;;
10063;SDS011;5071;52.360;13.134;2023-07-20T05:17:57;0.73;;;0.70;;
10063;SDS011;5071;52.360;13.134;2023-07-20T05:23:01;0.50;;;0.50;;
10063;SDS011;5071;52.360;13.134;2023-07-20T05:28:03;0.80;;;0.80;;
10063;SDS011;5071;52.360;13.134;2023-07-20T05:33:05;1.43;;;0.93;;
10063;SDS011;5071;52.360;13.134;2023-07-20T05:38:09;0.77;;;0.73;;
10063;SDS011;5071;52.360;13.134;2023-07-20T05:43:11;0.67;;;0.67;;
10063;SDS011;5071;52.360;13.134;2023-07-20T05:48:12;0.77;;;0.77;;
10063;SDS011;5071;52.360;13.134;2023-07-20T05:53:16;2.03;;;1.47;;
10063;SDS011;5071;52.360;13.134;2023-07-20T05:58:18;0.87;;;0.87;;
10063;SDS011;5071;52.360;13.134;2023-07-20T06:03:20;1.57;;;0.80;;
10063;SDS011;5071;52.360;13.134;2023-07-20T06:08:23;0.40;;;0.40;;
10063;SDS011;5071;52.360;13.134;2023-07-20T06:13:25;0.53;;;0.53;;
10063;SDS011;5071;52.360;13.134;2023-07-20T06:18:27;0.60;;;0.60;;
10063;SDS011;5071;52.360;13.134;2023-07-20T06:23:30;0.30;;;0.30;;
10063;SDS011;5071;52.360;13.134;2023-07-20T06:28:32;0.47;;;0.43;;
10063;SDS011;5071;52.360;13.134;2023-07-20T06:33:34;0.50;;;0.50;;
10063;SDS011;5071;52.360;13.134;2023-07-20T06:38:38;0.50;;;0.50;;
10063;SDS011;5071;52.360;13.134;2023-07-20T06:43:40;0.70;;;0.70;;
10063;SDS011;5071;52.360;13.134;2023-07-20T06:48:45;0.20;;;0.20;;
10063;SDS011;5071;52.360;13.134;2023-07-20T06:53:51;0.20;;;0.20;;
10063;SDS011;5071;52.360;13.134;2023-07-20T06:58:53;0.40;;;0.40;;
10063;SDS011;5071;52.360;13.134;2023-07-20T07:03:55;0.30;;;0.30;;
10063;SDS011;5071;52.360;13.134;2023-07-20T07:08:58;0.63;;;0.57;;
10063;SDS011;5071;52.360;13.134;2023-07-20T07:14:01;0.20;;;0.20;;
10063;SDS011;5071;52.360;13.134;2023-07-20T07:19:03;0.35;;;0.20;;
10063;SDS011;5071;52.360;13.134;2023-07-20T07:24:06;0.27;;;0.27;;
10063;SDS011;5071;52.360;13.134;2023-07-20T07:29:08;0.17;;;0.17;;
10063;SDS011;5071;52.360;13.134;2023-07-20T07:34:10;0.20;;;0.20;;
10063;SDS011;5071;52.360;13.134;2023-07-20T07:39:14;0.40;;;0.40;;
10063;SDS011;5071;52.360;13.134;2023-07-20T07:44:36;0.10;;;0.10;;
10063;SDS011;5071;52.360;13.134;2023-07-20T07:49:38;0.10;;;0.10;;
10063;SDS011;5071;52.360;13.134;2023-07-20T07:54:41;0.20;;;0.20;;
10063;SDS011;5071;52.360;13.134;2023-07-20T07:59:43;0.30;;;0.30;;
10063;SDS011;5071;52.360;13.134;2023-07-20T08:04:45;0.20;;;0.20;;
10063;SDS011;5071;52.360;13.134;2023-07-20T08:09:49;0.20;;;0.20;;
10063;SDS011;5071;52.360;13.134;2023-07-20T08:14:51;0.20;;;0.20;;
10063;SDS011;5071;52.360;13.134;2023-07-20T08:19:53;0.20;;;0.20;;
10063;SDS011;5071;52.360;13.134;2023-07-20T08:24:57;0.10;;;0.10;;
10063;SDS011;5071;52.360;13.134;2023-07-20T08:29:59;0.20;;;0.20;;
10063;SDS011;5071;52.360;13.134;2023-07-20T08:35:02;0.20;;;0.20;;
10063;SDS011;5071;52.360;13.134;2023-07-20T08:40:06;0.20;;;0.20;;
10063;SDS011;5071;52.360;13.134;2023-07-20T08:45:09;0.17;;;0.17;;
10063;SDS011;5071;52.360;13.134;2023-07-20T08:50:14;0.20;;;0.20;;
10063;SDS011;5071;52.360;13.134;2023-07-20T08:55:19;0.22;;;0.22;;
10063;SDS011;5071;52.360;13.134;2023-07-20T09:00:22;0.20;;;0.20;;
10063;SDS011;5071;52.360;13.134;2023-07-20T09:05:25;0.20;;;0.20;;
10063;SDS011;5071;52.360;13.134;2023-07-20T09:10:29;0.20;;;0.20;;
10063;SDS011;5071;52.360;13.134;2023-07-20T09:15:33;0.10;;;0.10;;
10063;SDS011;5071;52.360;13.134;2023-07-20T09:20:37;0.20;;;0.20;;
10063;SDS011;5071;52.360;13.134;2023-07-20T09:25:41;0.10;;;0.10;;
10063;SDS011;5071;52.360;13.134;2023-07-20T09:30:44;0.17;;;0.17;;
10063;SDS011;5071;52.360;13.134;2023-07-20T09:35:53;0.70;;;0.70;;
10063;SDS011;5071;52.360;13.134;2023-07-20T09:41:00;0.10;;;0.10;;
10063;SDS011;5071;52.360;13.134;2023-07-20T09:46:03;0.10;;;0.10;;
10063;SDS011;5071;52.360;13.134;2023-07-20T09:51:06;0.10;;;0.10;;
10063;SDS011;5071;52.360;13.134;2023-07-20T09:56:11;0.20;;;0.20;;
10063;SDS011;5071;52.360;13.134;2023-07-20T10:01:18;0.20;;;0.20;;
10063;SDS011;5071;52.360;13.134;2023-07-20T10:06:26;0.20;;;0.20;;
10063;SDS011;5071;52.360;13.134;2023-07-20T10:11:34;0.20;;;0.20;;
10063;SDS011;5071;52.360;13.134;2023-07-20T10:16:39;0.10;;;0.10;;
10063;SDS011;5071;52.360;13.134;2023-07-20T10:21:46;0.20;;;0.20;;
10063;SDS011;5071;52.360;13.134;2023-07-20T10:26:59;0.28;;;0.28;;
10063;SDS011;5071;52.360;13.134;2023-07-20T10:32:03;0.10;;;0.10;;
10063;SDS011;5071;52.360;13.134;2023-07-20T10:37:06;0.10;;;0.10;;
10063;SDS011;5071;52.360;13.134;2023-07-20T10:42:10;0.20;;;0.20;;
10063;SDS011;5071;52.360;13.134;2023-07-20T10:47:12;0.25;;;0.20;;
10063;SDS011;5071;52.360;13.134;2023-07-20T10:52:15;0.20;;;0.20;;
10063;SDS011;5071;52.360;13.134;2023-07-20T10:57:28;0.20;;;0.20;;
10063;SDS011;5071;52.360;13.134;2023-07-20T11:02:30;0.17;;;0.17;;
10063;SDS011;5071;52.360;13.134;2023-07-20T11:07:43;0.10;;;0.10;;
10063;SDS011;5071;52.360;13.134;2023-07-20T11:18:24;0.10;;;0.10;;
10063;SDS011;5071;52.360;13.134;2023-07-20T11:23:28;0.10;;;0.10;;
10063;SDS011;5071;52.360;13.134;2023-07-20T11:28:32;0.10;;;0.10;;
10063;SDS011;5071;52.360;13.134;2023-07-20T11:33:35;0.10;;;0.10;;
10063;SDS011;5071;52.360;13.134;2023-07-20T11:38:37;0.60;;;0.17;;
10063;SDS011;5071;52.360;13.134;2023-07-20T11:43:44;0.10;;;0.10;;
10063;SDS011;5071;52.360;13.134;2023-07-20T11:48:47;0.17;;;0.17;;
10063;SDS011;5071;52.360;13.134;2023-07-20T11:53:49;0.20;;;0.20;;
10063;SDS011;5071;52.360;13.134;2023-07-20T11:58:55;0.20;;;0.20;;
10063;SDS011;5071;52.360;13.134;2023-07-20T12:03:58;0.55;;;0.20;;
10063;SDS011;5071;52.360;13.134;2023-07-20T12:09:01;0.10;;;0.10;;
10063;SDS011;5071;52.360;13.134;2023-07-20T12:14:06;0.20;;;0.20;;
10063;SDS011;5071;52.360;13.134;2023-07-20T12:19:18;0.20;;;0.20;;
10063;SDS011;5071;52.360;13.134;2023-07-20T12:24:20;0.10;;;0.10;;
10063;SDS011;5071;52.360;13.134;2023-07-20T12:29:23;0.30;;;0.30;;
10063;SDS011;5071;52.360;13.134;2023-07-20T12:34:26;0.20;;;0.20;;
10063;SDS011;5071;52.360;13.134;2023-07-20T12:39:28;0.20;;;0.20;;
10063;SDS011;5071;52.360;13.134;2023-07-20T12:44:31;0.43;;;0.32;;
10063;SDS011;5071;52.360;13.134;2023-07-20T12:49:34;0.10;;;0.10;;
10063;SDS011;5071;52.360;13.134;2023-07-20T12:54:36;0.20;;;0.20;;
10063;SDS011;5071;52.360;13.134;2023-07-20T12:59:40;0.17;;;0.17;;
10063;SDS011;5071;52.360;13.134;2023-07-20T13:04:42;0.25;;;0.25;;
10063;SDS011;5071;52.360;13.134;2023-07-20T13:09:44;0.20;;;0.20;;
10063;SDS011;5071;52.360;13.134;2023-07-20T13:14:49;0.30;;;0.30;;
10063;SDS011;5071;52.360;13.134;2023-07-20T13:19:51;0.20;;;0.20;;
10063;SDS011;5071;52.360;13.134;2023-07-20T13:24:54;0.20;;;0.20;;
10063;SDS011;5071;52.360;13.134;2023-07-20T13:29:58;0.13;;;0.13;;
10063;SDS011;5071;52.360;13.134;2023-07-20T13:35:00;0.10;;;0.10;;
10063;SDS011;5071;52.360;13.134;2023-07-20T13:40:02;0.20;;;0.20;;
10063;SDS011;5071;52.360;13.134;2023-07-20T13:45:07;0.20;;;0.20;;
10063;SDS011;5071;52.360;13.134;2023-07-20T13:50:09;0.10;;;0.10;;
10063;SDS011;5071;52.360;13.134;2023-07-20T13:55:27;0.20;;;0.20;;
10063;SDS011;5071;52.360;13.134;2023-07-20T14:00:34;0.10;;;0.10;;
10063;SDS011;5071;52.360;13.134;2023-07-20T14:05:36;0.20;;;0.20;;
10063;SDS011;5071;52.360;13.134;2023-07-20T14:10:41;0.20;;;0.20;;
10063;SDS011;5071;52.360;13.134;2023-07-20T14:15:47;0.17;;;0.17;;
10063;SDS011;5071;52.360;13.134;2023-07-20T14:20:49;0.10;;;0.10;;
10063;SDS011;5071;52.360;13.134;2023-07-20T14:25:51;0.10;;;0.10;;
10063;SDS011;5071;52.360;13.134;2023-07-20T14:30:55;0.10;;;0.10;;
10063;SDS011;5071;52.360;13.134;2023-07-20T14:35:56;0.10;;;0.10;;
10063;SDS011;5071;52.360;13.134;2023-07-20T14:40:58;0.35;;;0.32;;
10063;SDS011;5071;52.360;13.134;2023-07-20T14:46:03;0.10;;;0.10;;
10063;SDS011;5071;52.360;13.134;2023-07-20T14:51:05;0.20;;;0.20;;
10063;SDS011;5071;52.360;13.134;2023-07-20T14:56:06;0.10;;;0.10;;
10063;SDS011;5071;52.360;13.134;2023-07-20T15:01:10;0.10;;;0.10;;
10063;SDS011;5071;52.360;13.134;2023-07-20T15:06:12;0.10;;;0.10;;
10063;SDS011;5071;52.360;13.134;2023-07-20T15:11:14;0.20;;;0.20;;
10063;SDS011;5071;52.360;13.134;2023-07-20T15:16:18;0.17;;;0.17;;
10063;SDS011;5071;52.360;13.134;2023-07-20T15:21:20;0.20;;;0.20;;
10063;SDS011;5071;52.360;13.134;2023-07-20T15:26:22;0.20;;;0.20;;
10063;SDS011;5071;52.360;13.134;2023-07-20T15:31:26;0.20;;;0.20;;
10063;SDS011;5071;52.360;13.134;2023-07-20T15:36:32;0.10;;;0.10;;
10063;SDS011;5071;52.360;13.134;2023-07-20T15:41:34;0.10;;;0.10;;
10063;SDS011;5071;52.360;13.134;2023-07-20T15:46:47;0.20;;;0.20;;
10063;SDS011;5071;52.360;13.134;2023-07-20T15:51:50;0.28;;;0.28;;
10063;SDS011;5071;52.360;13.134;2023-07-20T15:56:52;0.20;;;0.20;;
10063;SDS011;5071;52.360;13.134;2023-07-20T16:01:56;0.30;;;0.30;;
10063;SDS011;5071;52.360;13.134;2023-07-20T16:06:58;0.20;;;0.20;;
10063;SDS011;5071;52.360;13.134;2023-07-20T16:12:00;0.20;;;0.20;;
10063;SDS011;5071;52.360;13.134;2023-07-20T16:17:03;0.20;;;0.20;;
10063;SDS011;5071;52.360;13.134;2023-07-20T16:22:06;0.50;;;0.30;;
10063;SDS011;5071;52.360;13.134;2023-07-20T16:27:08;0.20;;;0.20;;
10063;SDS011;5071;52.360;13.134;2023-07-20T16:32:11;0.20;;;0.20;;
10063;SDS011;5071;52.360;13.134;2023-07-20T16:37:13;0.10;;;0.10;;
10063;SDS011;5071;52.360;13.134;2023-07-20T16:42:18;0.10;;;0.10;;
10063;SDS011;5071;52.360;13.134;2023-07-20T16:47:22;0.52;;;0.30;;
10063;SDS011;5071;52.360;13.134;2023-07-20T16:52:24;0.25;;;0.25;;
10063;SDS011;5071;52.360;13.134;2023-07-20T16:57:27;0.20;;;0.20;;
10063;SDS011;5071;52.360;13.134;2023-07-20T17:02:30;0.10;;;0.10;;
10063;SDS011;5071;52.360;13.134;2023-07-20T17:07:32;0.10;;;0.10;;
10063;SDS011;5071;52.360;13.134;2023-07-20T17:12:34;0.20;;;0.20;;
10063;SDS011;5071;52.360;13.134;2023-07-20T17:17:39;0.15;;;0.15;;
10063;SDS011;5071;52.360;13.134;2023-07-20T17:22:42;0.20;;;0.20;;
10063;SDS011;5071;52.360;13.134;2023-07-20T17:27:44;0.25;;;0.25;;
10063;SDS011;5071;52.360;13.134;2023-07-20T17:32:51;0.45;;;0.40;;
10063;SDS011;5071;52.360;13.134;2023-07-20T17:37:53;0.20;;;0.20;;
10063;SDS011;5071;52.360;13.134;2023-07-20T17:42:57;0.13;;;0.13;;
10063;SDS011;5071;52.360;13.134;2023-07-20T17:48:04;0.10;;;0.10;;
10063;SDS011;5071;52.360;13.134;2023-07-20T17:53:06;0.35;;;0.35;;
10063;SDS011;5071;52.360;13.134;2023-07-20T17:58:09;0.20;;;0.20;;
10063;SDS011;5071;52.360;13.134;2023-07-20T18:03:12;0.10;;;0.10;;
10063;SDS011;5071;52.360;13.134;2023-07-20T18:08:15;0.25;;;0.17;;
10063;SDS011;5071;52.360;13.134;2023-07-20T18:13:17;0.10;;;0.10;;
10063;SDS011;5071;52.360;13.134;2023-07-20T18:18:20;0.13;;;0.13;;
10063;SDS011;5071;52.360;13.134;2023-07-20T18:23:23;0.47;;;0.30;;
10063;SDS011;5071;52.360;13.134;2023-07-20T18:28:25;0.13;;;0.13;;
10063;SDS011;5071;52.360;13.134;2023-07-20T18:33:29;0.30;;;0.30;;
10063;SDS011;5071;52.360;13.134;2023-07-20T18:38:33;0.10;;;0.10;;
10063;SDS011;5071;52.360;13.134;2023-07-20T18:43:35;0.10;;;0.10;;
10063;SDS011;5071;52.360;13.134;2023-07-20T18:48:38;0.20;;;0.20;;
10063;SDS011;5071;52.360;13.134;2023-07-20T18:53:41;0.20;;;0.20;;
10063;SDS011;5071;52.360;13.134;2023-07-20T18:58:43;0.10;;;0.10;;
10063;SDS011;5071;52.360;13.134;2023-07-20T19:03:46;0.10;;;0.10;;
10063;SDS011;5071;52.360;13.134;2023-07-20T19:08:48;0.10;;;0.10;;
10063;SDS011;5071;52.360;13.134;2023-07-20T19:13:50;0.20;;;0.20;;
10063;SDS011;5071;52.360;13.134;2023-07-20T19:18:55;0.17;;;0.17;;
10063;SDS011;5071;52.360;13.134;2023-07-20T19:23:57;0.43;;;0.43;;
10063;SDS011;5071;52.360;13.134;2023-07-20T19:29:00;0.10;;;0.10;;
10063;SDS011;5071;52.360;13.134;2023-07-20T19:34:04;0.10;;;0.10;;
10063;SDS011;5071;52.360;13.134;2023-07-20T19:39:06;0.20;;;0.20;;
10063;SDS011;5071;52.360;13.134;2023-07-20T19:44:08;0.20;;;0.20;;
10063;SDS011;5071;52.360;13.134;2023-07-20T19:49:11;0.10;;;0.10;;
10063;SDS011;5071;52.360;13.134;2023-07-20T19:54:13;0.10;;;0.10;;
10063;SDS011;5071;52.360;13.134;2023-07-20T19:59:18;0.60;;;0.60;;
10063;SDS011;5071;52.360;13.134;2023-07-20T20:04:22;0.10;;;0.10;;
10063;SDS011;5071;52.360;13.134;2023-07-20T20:09:26;0.10;;;0.10;;
10063;SDS011;5071;52.360;13.134;2023-07-20T20:14:28;0.10;;;0.10;;
10063;SDS011;5071;52.360;13.134;2023-07-20T20:19:31;0.10;;;0.10;;
10063;SDS011;5071;52.360;13.134;2023-07-20T20:24:33;0.20;;;0.20;;
10063;SDS011;5071;52.360;13.134;2023-07-20T20:29:35;0.10;;;0.10;;
10063;SDS011;5071;52.360;13.134;2023-07-20T20:34:38;0.10;;;0.10;;
10063;SDS011;5071;52.360;13.134;2023-07-20T20:39:40;0.50;;;0.40;;
10063;SDS011;5071;52.360;13.134;2023-07-20T20:44:42;0.10;;;0.10;;
10063;SDS011;5071;52.360;13.134;2023-07-20T20:49:45;0.10;;;0.10;;
10063;SDS011;5071;52.360;13.134;2023-07-20T20:54:47;0.50;;;0.20;;
10063;SDS011;5071;52.360;13.134;2023-07-20T20:59:49;0.20;;;0.20;;
10063;SDS011;5071;52.360;13.134;2023-07-20T21:04:53;0.20;;;0.20;;
10063;SDS011;5071;52.360;13.134;2023-07-20T21:09:55;0.10;;;0.10;;
10063;SDS011;5071;52.360;13.134;2023-07-20T21:14:57;0.87;;;0.87;;
10063;SDS011;5071;52.360;13.134;2023-07-20T21:20:01;0.10;;;0.10;;
10063;SDS011;5071;52.360;13.134;2023-07-20T21:25:03;0.10;;;0.10;;
10063;SDS011;5071;52.360;13.134;2023-07-20T21:30:07;0.10;;;0.10;;
10063;SDS011;5071;52.360;13.134;2023-07-20T21:35:11;0.10;;;0.10;;
10063;SDS011;5071;52.360;13.134;2023-07-20T21:40:14;0.10;;;0.10;;
10063;SDS011;5071;52.360;13.134;2023-07-20T21:45:16;0.20;;;0.20;;
10063;SDS011;5071;52.360;13.134;2023-07-20T21:50:19;0.20;;;0.20;;
10063;SDS011;5071;52.360;13.134;2023-07-20T21:55:21;0.43;;;0.20;;
10063;SDS011;5071;52.360;13.134;2023-07-20T22:00:24;0.10;;;0.10;;
10063;SDS011;5071;52.360;13.134;2023-07-20T22:05:27;0.10;;;0.10;;
10063;SDS011;5071;52.360;13.134;2023-07-20T22:10:30;0.20;;;0.20;;
10063;SDS011;5071;52.360;13.134;2023-07-20T22:15:32;0.10;;;0.10;;
10063;SDS011;5071;52.360;13.134;2023-07-20T22:20:36;0.20;;;0.20;;
10063;SDS011;5071;52.360;13.134;2023-07-20T22:25:38;0.10;;;0.10;;
10063;SDS011;5071;52.360;13.134;2023-07-20T22:30:40;0.20;;;0.20;;
10063;SDS011;5071;52.360;13.134;2023-07-20T22:35:44;0.20;;;0.20;;
10063;SDS011;5071;52.360;13.134;2023-07-20T22:40:46;0.30;;;0.20;;
10063;SDS011;5071;52.360;13.134;2023-07-20T22:45:48;0.10;;;0.10;;
10063;SDS011;5071;52.360;13.134;2023-07-20T22:50:53;0.10;;;0.10;;
10063;SDS011;5071;52.360;13.134;2023-07-20T22:55:54;0.10;;;0.10;;
10063;SDS011;5071;52.360;13.134;2023-07-20T23:00:56;0.10;;;0.10;;
10063;SDS011;5071;52.360;13.134;2023-07-20T23:06:00;0.10;;;0.10;;
10063;SDS011;5071;52.360;13.134;2023-07-20T23:11:02;0.10;;;0.10;;
10063;SDS011;5071;52.360;13.134;2023-07-20T23:16:04;0.00;;;0.00;;
10063;SDS011;5071;52.360;13.134;2023-07-20T23:21:07;0.10;;;0.10;;
10063;SDS011;5071;52.360;13.134;2023-07-20T23:26:09;0.20;;;0.20;;
10063;SDS011;5071;52.360;13.134;2023-07-20T23:31:12;0.20;;;0.20;;
10063;SDS011;5071;52.360;13.134;2023-07-20T23:36:15;0.00;;;0.00;;
10063;SDS011;5071;52.360;13.134;2023-07-20T23:41:17;0.10;;;0.10;;
10063;SDS011;5071;52.360;13.134;2023-07-20T23:46:19;0.10;;;0.10;;
10063;SDS011;5071;52.360;13.134;2023-07-20T23:51:23;0.00;;;0.00;;
10063;SDS011;5071;52.360;13.134;2023-07-20T23:56:25;0.20;;;0.20;;
